Time;durP1;ratioP1;P1;durP2;ratioP2;P2;SDS_P1;SDS_P2;PMS_P1;PMS_P2;Temp;Humidity;BMP_temperature;BMP_pressure;BME280_temperature;BME280_humidity;BME280_pressure;Samples;Min_cycle;Max_cycle;Signal;HPM_P1;HPM_P2
2021/09/25 00:01:43;;;;;;;9.52;6.47;;;15.40;91.70;;;;;;5032085;28;20067;-81
2021/09/25 00:04:10;;;;;;;9.43;6.20;;;15.30;91.70;;;;;;5029157;28;20045;-81
2021/09/25 00:06:35;;;;;;;11.02;6.28;;;15.30;91.70;;;;;;5044110;28;20029;-81
2021/09/25 00:09:01;;;;;;;9.57;6.20;;;15.30;91.70;;;;;;5051420;28;20070;-81
2021/09/25 00:11:29;;;;;;;9.35;6.07;;;15.30;91.80;;;;;;5051437;28;20112;-81
2021/09/25 00:13:56;;;;;;;7.75;5.82;;;15.20;91.70;;;;;;5035094;28;20025;-80
2021/09/25 00:16:25;;;;;;;11.43;6.85;;;15.20;91.70;;;;;;5034679;28;20034;-81
2021/09/25 00:18:52;;;;;;;11.15;6.43;;;15.20;91.70;;;;;;5017753;28;20440;-81
2021/09/25 00:21:18;;;;;;;13.02;6.47;;;15.20;91.80;;;;;;5034832;28;20114;-81
2021/09/25 00:23:43;;;;;;;8.60;6.10;;;15.10;91.80;;;;;;5034468;28;20065;-81
2021/09/25 00:26:09;;;;;;;12.57;7.28;;;15.10;91.80;;;;;;5034655;28;20631;-81
2021/09/25 00:28:35;;;;;;;10.75;6.38;;;15.10;91.90;;;;;;5034568;28;20029;-81
2021/09/25 00:31:00;;;;;;;11.93;6.30;;;15.10;91.90;;;;;;5034744;28;20017;-81
2021/09/25 00:33:26;;;;;;;10.00;6.20;;;15.10;91.90;;;;;;5034432;28;20122;-80
2021/09/25 00:35:52;;;;;;;9.77;7.03;;;15.10;91.90;;;;;;5052371;28;20029;-81
2021/09/25 00:38:17;;;;;;;11.30;6.75;;;15.00;92.00;;;;;;5018748;28;20032;-81
2021/09/25 00:40:43;;;;;;;12.95;6.90;;;15.00;92.00;;;;;;5038193;28;20029;-81
2021/09/25 00:43:08;;;;;;;8.77;6.03;;;15.00;92.10;;;;;;5034677;28;20064;-80
2021/09/25 00:45:34;;;;;;;11.32;6.25;;;15.00;92.10;;;;;;5034900;28;20034;-81
2021/09/25 00:48:00;;;;;;;12.93;6.20;;;15.00;92.10;;;;;;5024050;28;20152;-80
2021/09/25 00:50:28;;;;;;;11.73;7.00;;;15.00;92.10;;;;;;5055591;28;20136;-81
2021/09/25 00:52:54;;;;;;;13.40;5.78;;;15.00;92.10;;;;;;5038057;28;20025;-80
2021/09/25 00:55:21;;;;;;;9.93;6.07;;;15.00;92.10;;;;;;5037636;28;20385;-81
2021/09/25 00:57:52;;;;;;;11.23;6.40;;;14.90;92.10;;;;;;5055729;28;20037;-81
2021/09/25 01:00:17;;;;;;;12.55;7.40;;;14.90;92.10;;;;;;5037798;28;20570;-81
2021/09/25 01:02:43;;;;;;;11.82;7.72;;;14.90;92.10;;;;;;5001656;28;20057;-80
2021/09/25 01:05:09;;;;;;;10.95;7.10;;;14.90;92.10;;;;;;5050449;28;20082;-81
2021/09/25 01:07:34;;;;;;;11.57;7.28;;;14.90;92.10;;;;;;5054266;28;20378;-81
2021/09/25 01:10:00;;;;;;;11.07;6.75;;;14.90;92.10;;;;;;5054115;28;20017;-81
2021/09/25 01:12:26;;;;;;;12.15;6.57;;;14.90;92.20;;;;;;5054818;28;20552;-81
2021/09/25 01:14:52;;;;;;;10.32;6.90;;;14.90;92.20;;;;;;5037009;28;20033;-81
2021/09/25 01:17:17;;;;;;;11.88;6.60;;;14.90;92.20;;;;;;5055018;28;20037;-81
2021/09/25 01:19:43;;;;;;;9.88;6.35;;;14.90;92.20;;;;;;5037558;28;20037;-80
2021/09/25 01:22:10;;;;;;;12.35;7.68;;;14.90;92.30;;;;;;5055270;28;20029;-81
2021/09/25 01:24:37;;;;;;;10.00;6.45;;;15.00;92.40;;;;;;5037281;28;20029;-81
2021/09/25 01:27:03;;;;;;;11.70;7.47;;;15.00;92.40;;;;;;5017372;28;20025;-81
2021/09/25 01:29:30;;;;;;;10.95;7.78;;;15.00;92.50;;;;;;5035347;28;20098;-81
2021/09/25 01:31:56;;;;;;;10.90;6.97;;;15.10;92.50;;;;;;5017163;28;20132;-81
2021/09/25 01:34:21;;;;;;;11.50;7.03;;;15.10;92.50;;;;;;5033823;28;20473;-81
2021/09/25 01:36:48;;;;;;;12.63;7.50;;;15.10;92.80;;;;;;5041596;28;20112;-81
2021/09/25 01:39:14;;;;;;;16.55;6.85;;;15.20;92.60;;;;;;5055108;28;20028;-81
2021/09/25 01:41:40;;;;;;;11.57;6.93;;;15.20;92.90;;;;;;5053506;28;20067;-81
2021/09/25 01:44:05;;;;;;;11.63;7.32;;;15.20;92.60;;;;;;5054764;28;20082;-81
2021/09/25 01:46:31;;;;;;;11.10;6.20;;;15.30;92.60;;;;;;5055023;28;20128;-81
2021/09/25 01:48:57;;;;;;;11.52;7.30;;;15.30;92.70;;;;;;5036927;28;20029;-81
2021/09/25 01:51:22;;;;;;;11.50;6.32;;;15.30;92.70;;;;;;5035931;28;20029;-81
2021/09/25 01:53:48;;;;;;;13.13;6.60;;;15.30;92.60;;;;;;5053560;28;20032;-80
2021/09/25 01:56:16;;;;;;;11.20;6.25;;;15.30;92.70;;;;;;5054233;28;20075;-80
2021/09/25 01:58:43;;;;;;;12.80;6.63;;;15.40;92.70;;;;;;5036761;28;20040;-81
2021/09/25 02:01:11;;;;;;;11.57;8.32;;;15.40;92.70;;;;;;5036500;28;20024;-80
2021/09/25 02:03:36;;;;;;;11.25;6.55;;;15.40;93.00;;;;;;5054146;28;20414;-81
2021/09/25 02:06:11;;;;;;;8.05;6.55;;;15.40;92.70;;;;;;5036200;28;20036;-80
2021/09/25 02:08:38;;;;;;;10.93;6.75;;;15.50;93.00;;;;;;5054464;28;20123;-81
2021/09/25 02:11:05;;;;;;;15.43;7.28;;;15.40;92.70;;;;;;5054142;28;20025;-80
2021/09/25 02:13:31;;;;;;;8.70;5.95;;;15.50;92.70;;;;;;5018802;28;20029;-81
2021/09/25 02:15:57;;;;;;;10.73;6.32;;;15.50;92.70;;;;;;5034730;28;20029;-81
2021/09/25 02:18:23;;;;;;;14.00;7.57;;;15.50;92.70;;;;;;5034458;28;20025;-81
2021/09/25 02:20:49;;;;;;;15.73;7.28;;;15.50;92.70;;;;;;5033475;28;20025;-81
2021/09/25 02:23:15;;;;;;;9.60;6.63;;;15.50;92.70;;;;;;5014832;28;20038;-80
2021/09/25 02:25:41;;;;;;;13.63;7.32;;;15.60;92.70;;;;;;5031791;28;20043;-81
2021/09/25 02:28:06;;;;;;;11.05;6.93;;;15.60;92.70;;;;;;5035776;28;20029;-81
2021/09/25 02:30:34;;;;;;;10.32;6.65;;;15.60;92.60;;;;;;5052140;28;20079;-81
2021/09/25 02:32:59;;;;;;;13.07;6.90;;;15.60;92.60;;;;;;5052422;28;20394;-81
2021/09/25 02:35:26;;;;;;;12.00;7.68;;;15.60;92.60;;;;;;5053949;28;20087;-81
2021/09/25 02:37:52;;;;;;;10.95;7.18;;;15.60;92.60;;;;;;5002820;28;20048;-81
2021/09/25 02:40:19;;;;;;;11.55;7.40;;;15.60;92.60;;;;;;5035868;28;20031;-80
2021/09/25 02:42:45;;;;;;;11.30;6.85;;;15.60;92.60;;;;;;5003148;28;20087;-81
2021/09/25 02:45:13;;;;;;;12.60;7.20;;;15.60;92.50;;;;;;5035569;28;20033;-81
2021/09/25 02:47:39;;;;;;;10.75;7.43;;;15.60;92.50;;;;;;5053474;28;20028;-81
2021/09/25 02:50:08;;;;;;;8.80;5.95;;;15.60;92.50;;;;;;5035237;28;20500;-81
2021/09/25 02:52:33;;;;;;;12.05;6.95;;;15.60;92.50;;;;;;5035247;28;20021;-81
2021/09/25 02:54:59;;;;;;;9.25;6.93;;;15.60;92.60;;;;;;5035290;28;20035;-81
2021/09/25 02:57:25;;;;;;;9.02;5.85;;;15.60;92.60;;;;;;5015701;28;20149;-81
2021/09/25 02:59:50;;;;;;;10.50;6.75;;;15.70;92.60;;;;;;5046140;28;20048;-81
2021/09/25 03:02:16;;;;;;;11.70;6.60;;;15.60;92.50;;;;;;5050751;28;20063;-81
2021/09/25 03:04:41;;;;;;;13.13;7.82;;;15.60;92.60;;;;;;5016437;28;20061;-81
2021/09/25 03:07:08;;;;;;;15.48;7.80;;;15.60;92.60;;;;;;5031685;28;20021;-81
2021/09/25 03:09:34;;;;;;;12.73;7.20;;;15.70;92.60;;;;;;5035063;28;20036;-81
2021/09/25 03:12:00;;;;;;;12.88;7.93;;;15.70;92.60;;;;;;5053072;28;20017;-81
2021/09/25 03:14:25;;;;;;;16.33;8.60;;;15.70;92.50;;;;;;5051828;28;20370;-81
2021/09/25 03:16:52;;;;;;;10.18;6.95;;;15.60;92.50;;;;;;5040216;28;20029;-81
2021/09/25 03:19:18;;;;;;;14.10;7.30;;;15.60;92.80;;;;;;5035632;28;20033;-81
2021/09/25 03:21:45;;;;;;;10.20;6.93;;;15.70;92.80;;;;;;5035895;28;20049;-81
2021/09/25 03:24:10;;;;;;;14.77;8.73;;;15.70;92.50;;;;;;5018694;28;20091;-81
2021/09/25 03:26:36;;;;;;;10.85;7.78;;;15.60;92.50;;;;;;5051848;28;20466;-81
2021/09/25 03:29:02;;;;;;;14.75;9.02;;;15.70;92.50;;;;;;5053142;28;20025;-81
2021/09/25 03:31:27;;;;;;;11.93;7.63;;;15.70;92.50;;;;;;5053136;28;20052;-80
2021/09/25 03:33:53;;;;;;;16.88;8.77;;;15.70;92.50;;;;;;5051796;28;20040;-81
2021/09/25 03:36:19;;;;;;;15.93;8.93;;;15.70;92.50;;;;;;5035150;28;20033;-81
2021/09/25 03:38:45;;;;;;;14.55;8.52;;;15.70;92.50;;;;;;5034941;28;20545;-81
2021/09/25 03:41:10;;;;;;;15.75;9.00;;;15.70;92.60;;;;;;5002287;28;20059;-81
2021/09/25 03:43:36;;;;;;;11.63;7.68;;;15.70;92.60;;;;;;5035024;28;20032;-81
2021/09/25 03:46:01;;;;;;;14.25;8.80;;;15.70;92.60;;;;;;5051712;28;20029;-81
2021/09/25 03:48:27;;;;;;;12.63;7.85;;;15.70;92.60;;;;;;5002288;28;20056;-80
2021/09/25 03:50:53;;;;;;;11.65;8.40;;;15.70;92.60;;;;;;5018712;28;20482;-81
2021/09/25 03:53:20;;;;;;;15.38;8.77;;;15.70;92.60;;;;;;5018777;28;20040;-81
2021/09/25 03:55:46;;;;;;;14.43;8.77;;;15.70;92.60;;;;;;5035082;28;20033;-81
2021/09/25 03:58:12;;;;;;;13.05;7.78;;;15.70;92.50;;;;;;5018397;28;20033;-81
2021/09/25 04:00:42;;;;;;;16.38;8.57;;;15.70;92.50;;;;;;5034729;28;20029;-81
2021/09/25 04:03:10;;;;;;;14.13;8.85;;;15.70;92.50;;;;;;5018861;28;20064;-81
2021/09/25 04:05:35;;;;;;;11.18;7.68;;;15.70;92.50;;;;;;5034986;28;20033;-81
2021/09/25 04:08:01;;;;;;;12.52;8.40;;;15.70;92.60;;;;;;5034973;28;20435;-81
2021/09/25 04:10:27;;;;;;;17.08;9.70;;;15.70;92.80;;;;;;5018606;28;20078;-81
2021/09/25 04:12:52;;;;;;;14.82;9.88;;;15.70;92.60;;;;;;5018337;28;20168;-81
2021/09/25 04:15:18;;;;;;;13.50;8.95;;;15.70;92.60;;;;;;5038574;28;20064;-81
2021/09/25 04:17:43;;;;;;;13.50;8.48;;;15.70;92.50;;;;;;5038592;28;20124;-81
2021/09/25 04:20:09;;;;;;;13.35;8.82;;;15.70;92.50;;;;;;5056598;28;20029;-81
2021/09/25 04:22:35;;;;;;;20.35;10.70;;;15.70;92.60;;;;;;5038689;28;20035;-81
2021/09/25 04:25:01;;;;;;;16.00;9.45;;;15.70;92.60;;;;;;5036974;28;20033;-81
2021/09/25 04:27:29;;;;;;;17.00;10.10;;;15.70;92.60;;;;;;5038648;28;20031;-81
2021/09/25 04:29:59;;;;;;;17.37;10.83;;;15.70;92.60;;;;;;5055078;28;20480;-81
2021/09/25 04:32:25;;;;;;;19.48;10.75;;;15.70;92.60;;;;;;5055887;28;20315;-81
2021/09/25 04:34:51;;;;;;;19.05;10.40;;;15.70;92.60;;;;;;5038148;28;20048;-81
2021/09/25 04:37:16;;;;;;;19.50;10.80;;;15.70;92.60;;;;;;5018683;28;20487;-81
2021/09/25 04:39:42;;;;;;;19.48;11.68;;;15.70;92.80;;;;;;5035112;28;20033;-81
2021/09/25 04:42:07;;;;;;;18.50;9.95;;;15.70;92.60;;;;;;5034695;28;20049;-81
2021/09/25 04:44:33;;;;;;;20.33;10.95;;;15.70;92.60;;;;;;5018329;28;20551;-81
2021/09/25 04:46:59;;;;;;;16.35;10.68;;;15.70;92.60;;;;;;5020224;28;20071;-81
2021/09/25 04:49:24;;;;;;;19.00;12.00;;;15.70;92.60;;;;;;5055842;28;20053;-81
2021/09/25 04:51:50;;;;;;;20.50;10.85;;;15.70;92.60;;;;;;5038566;28;20037;-81
2021/09/25 04:54:16;;;;;;;20.75;11.10;;;15.70;92.70;;;;;;5018029;28;20410;-81
2021/09/25 04:56:41;;;;;;;20.00;11.00;;;15.70;93.00;;;;;;5018209;28;20875;-81
2021/09/25 04:59:07;;;;;;;17.25;11.02;;;15.70;92.70;;;;;;5034541;28;20029;-81
2021/09/25 05:01:32;;;;;;;18.95;11.10;;;15.70;92.70;;;;;;5054019;28;20033;-81
2021/09/25 05:04:01;;;;;;;17.98;10.95;;;15.70;92.70;;;;;;5054020;28;20094;-81
2021/09/25 05:06:28;;;;;;;23.95;11.65;;;15.70;92.70;;;;;;5034394;28;20393;-81
2021/09/25 05:08:53;;;;;;;18.58;10.50;;;15.80;92.70;;;;;;5050767;28;20513;-81
2021/09/25 05:11:19;;;;;;;21.02;11.98;;;15.70;92.70;;;;;;5021244;28;20060;-81
2021/09/25 05:13:44;;;;;;;20.02;11.05;;;15.80;92.70;;;;;;5037705;28;20039;-81
2021/09/25 05:16:10;;;;;;;17.90;10.50;;;15.70;92.70;;;;;;5020960;28;20112;-81
2021/09/25 05:18:36;;;;;;;17.80;11.25;;;15.70;92.70;;;;;;5037471;28;20021;-81
2021/09/25 05:21:01;;;;;;;16.38;10.85;;;15.80;92.70;;;;;;5055238;28;20066;-81
2021/09/25 05:23:27;;;;;;;20.52;11.57;;;15.70;92.70;;;;;;5055219;28;20025;-81
2021/09/25 05:25:52;;;;;;;17.50;11.02;;;15.80;92.70;;;;;;5035852;28;20064;-81
2021/09/25 05:28:18;;;;;;;18.85;10.93;;;15.70;92.70;;;;;;5004593;28;20025;-81
2021/09/25 05:30:44;;;;;;;19.48;11.27;;;15.70;92.70;;;;;;5020566;28;20033;-81
2021/09/25 05:33:09;;;;;;;16.98;10.57;;;15.70;92.70;;;;;;5015990;28;20498;-82
2021/09/25 05:35:36;;;;;;;19.90;10.68;;;15.80;92.70;;;;;;5045040;28;20033;-81
2021/09/25 05:38:02;;;;;;;16.20;10.68;;;15.80;92.60;;;;;;5034814;28;20028;-81
2021/09/25 05:40:28;;;;;;;19.13;11.15;;;15.80;92.70;;;;;;5034433;28;20029;-81
2021/09/25 05:42:53;;;;;;;19.25;11.48;;;15.80;92.70;;;;;;5035164;28;20051;-82
2021/09/25 05:45:19;;;;;;;19.52;11.77;;;15.80;92.70;;;;;;5019555;28;20386;-81
2021/09/25 05:47:46;;;;;;;19.50;10.40;;;15.80;92.70;;;;;;5050783;28;20430;-81
2021/09/25 05:50:13;;;;;;;19.75;11.07;;;15.80;92.70;;;;;;5042434;28;20429;-81
2021/09/25 05:52:39;;;;;;;25.70;11.75;;;15.80;92.60;;;;;;5036628;28;20052;-81
2021/09/25 05:55:06;;;;;;;17.88;11.80;;;15.80;92.70;;;;;;5054165;28;20145;-81
2021/09/25 05:57:32;;;;;;;16.55;10.35;;;15.80;92.70;;;;;;5052730;28;21572;-81
2021/09/25 05:59:58;;;;;;;16.85;10.80;;;15.80;92.70;;;;;;5036307;28;20553;-81
2021/09/25 06:02:24;;;;;;;22.98;10.98;;;15.80;92.70;;;;;;5054157;28;20374;-81
2021/09/25 06:04:49;;;;;;;25.52;11.93;;;15.80;92.70;;;;;;5036155;28;20040;-81
2021/09/25 06:07:15;;;;;;;19.88;11.10;;;15.80;92.80;;;;;;5020134;28;20036;-81
2021/09/25 06:09:42;;;;;;;21.42;10.55;;;15.80;92.70;;;;;;5036217;28;20028;-81
2021/09/25 06:12:08;;;;;;;19.08;11.43;;;15.90;92.80;;;;;;5052259;28;20070;-81
2021/09/25 06:14:34;;;;;;;18.02;10.85;;;15.90;92.80;;;;;;5017886;28;20033;-81
2021/09/25 06:16:59;;;;;;;17.45;10.38;;;15.90;92.80;;;;;;5034812;28;20041;-81
2021/09/25 06:19:25;;;;;;;20.75;10.32;;;15.90;92.80;;;;;;5033548;28;20124;-81
2021/09/25 06:21:51;;;;;;;16.17;10.02;;;16.00;93.00;;;;;;5052796;28;20540;-84
2021/09/25 06:24:16;;;;;;;24.48;11.25;;;16.00;92.70;;;;;;5034245;28;20135;-84
2021/09/25 06:26:42;;;;;;;19.85;10.15;;;16.00;92.70;;;;;;5053299;28;20029;-84
2021/09/25 06:29:08;;;;;;;17.52;9.88;;;16.00;92.70;;;;;;5035838;28;20102;-84
2021/09/25 06:31:34;;;;;;;22.33;10.95;;;16.00;92.70;;;;;;5036167;28;20490;-84
2021/09/25 06:34:00;;;;;;;20.70;11.85;;;16.00;92.60;;;;;;5035650;28;20029;-83
2021/09/25 06:36:26;;;;;;;22.02;12.05;;;16.10;92.60;;;;;;5053101;28;20025;-84
2021/09/25 06:38:52;;;;;;;22.55;12.65;;;16.10;92.60;;;;;;5038504;28;20536;-84
2021/09/25 06:41:17;;;;;;;22.30;12.50;;;16.10;92.60;;;;;;5032374;28;20033;-83
2021/09/25 06:43:44;;;;;;;24.30;12.05;;;16.10;92.60;;;;;;5023316;28;20040;-84
2021/09/25 06:46:11;;;;;;;20.50;10.88;;;16.20;92.50;;;;;;5035693;28;20039;-84
2021/09/25 06:48:37;;;;;;;19.17;11.02;;;16.20;92.50;;;;;;5052486;28;20027;-84
2021/09/25 06:51:03;;;;;;;20.27;12.48;;;16.30;92.50;;;;;;5053262;28;20021;-84
2021/09/25 06:53:28;;;;;;;22.35;12.60;;;16.30;92.40;;;;;;5052264;28;20032;-84
2021/09/25 06:55:54;;;;;;;22.95;12.18;;;16.30;92.40;;;;;;5052269;28;20032;-83
2021/09/25 06:58:20;;;;;;;25.17;13.52;;;16.40;92.40;;;;;;5053550;28;20178;-84
2021/09/25 07:00:47;;;;;;;28.23;14.27;;;16.40;92.40;;;;;;5035899;28;20098;-84
2021/09/25 07:03:13;;;;;;;29.45;15.25;;;16.40;92.30;;;;;;5034234;28;20107;-83
2021/09/25 07:05:40;;;;;;;26.23;13.80;;;16.40;92.20;;;;;;5017972;28;20040;-83
2021/09/25 07:08:06;;;;;;;27.05;13.73;;;16.50;92.30;;;;;;5013763;28;20097;-84
2021/09/25 07:10:32;;;;;;;27.25;14.35;;;16.60;92.30;;;;;;5031939;28;20121;-84
2021/09/25 07:12:58;;;;;;;26.35;14.52;;;16.60;92.20;;;;;;5031841;28;20083;-76
2021/09/25 07:15:23;;;;;;;31.52;15.38;;;16.60;92.10;;;;;;5014295;28;20389;-75
2021/09/25 07:17:49;;;;;;;25.80;14.88;;;16.60;92.00;;;;;;5030019;28;20116;-75
2021/09/25 07:20:17;;;;;;;24.30;13.82;;;16.70;92.00;;;;;;5030735;28;20037;-75
2021/09/25 07:22:45;;;;;;;34.00;15.75;;;16.70;92.00;;;;;;5028396;28;20533;-75
2021/09/25 07:25:12;;;;;;;32.07;14.97;;;16.70;91.90;;;;;;5030463;28;20417;-76
2021/09/25 07:27:38;;;;;;;24.98;14.35;;;16.80;91.90;;;;;;5031446;28;20025;-78
2021/09/25 07:30:04;;;;;;;30.05;15.65;;;16.80;91.90;;;;;;5032409;28;20017;-78
2021/09/25 07:32:30;;;;;;;29.15;14.07;;;16.80;91.80;;;;;;5008330;28;20062;-78
2021/09/25 07:34:55;;;;;;;26.52;14.75;;;16.90;91.70;;;;;;5033118;28;20065;-78
2021/09/25 07:37:21;;;;;;;25.92;14.52;;;16.90;91.70;;;;;;5047586;28;20402;-84
2021/09/25 07:39:47;;;;;;;22.65;13.13;;;16.90;91.70;;;;;;5033295;28;20120;-84
2021/09/25 07:42:12;;;;;;;25.60;14.07;;;17.00;91.60;;;;;;5033791;28;20061;-83
2021/09/25 07:44:38;;;;;;;27.42;14.32;;;17.00;91.60;;;;;;5032958;28;20061;-83
2021/09/25 07:47:04;;;;;;;29.25;14.13;;;17.00;91.50;;;;;;5033574;28;20528;-82
2021/09/25 07:49:30;;;;;;;23.65;13.98;;;17.00;91.40;;;;;;5037275;28;20049;-83
2021/09/25 07:51:55;;;;;;;20.83;13.45;;;17.00;91.40;;;;;;5020787;28;20032;-77
2021/09/25 07:54:21;;;;;;;20.77;12.60;;;17.10;91.40;;;;;;5044859;28;20064;-82
2021/09/25 07:56:46;;;;;;;19.80;12.07;;;17.10;91.40;;;;;;5023774;28;20030;-82
2021/09/25 07:59:12;;;;;;;19.40;11.60;;;17.10;91.40;;;;;;5042352;28;20057;-82
2021/09/25 08:01:38;;;;;;;19.60;11.35;;;17.20;91.30;;;;;;5038389;28;20037;-82
2021/09/25 08:04:03;;;;;;;21.00;11.68;;;17.20;91.10;;;;;;5038048;28;20041;-84
2021/09/25 08:06:29;;;;;;;19.48;11.77;;;17.20;91.00;;;;;;5040747;28;20060;-83
2021/09/25 08:08:55;;;;;;;19.13;11.77;;;17.30;91.00;;;;;;5016542;28;20033;-83
2021/09/25 08:11:20;;;;;;;19.02;10.93;;;17.30;91.00;;;;;;5022055;28;20128;-84
2021/09/25 08:13:46;;;;;;;18.20;11.18;;;17.30;90.80;;;;;;5021118;28;20029;-85
2021/09/25 08:16:12;;;;;;;22.20;11.48;;;17.40;90.70;;;;;;5039740;28;20041;-85
2021/09/25 08:18:38;;;;;;;17.27;11.93;;;17.40;90.60;;;;;;5039509;28;20025;-85
2021/09/25 08:21:03;;;;;;;16.95;10.50;;;17.50;90.50;;;;;;5038409;28;20483;-83
2021/09/25 08:23:29;;;;;;;17.45;11.18;;;17.50;90.50;;;;;;5042650;28;20021;-83
2021/09/25 08:25:55;;;;;;;18.55;11.25;;;17.60;90.50;;;;;;5037501;28;20044;-82
2021/09/25 08:28:20;;;;;;;13.57;9.15;;;17.70;90.30;;;;;;5035776;28;20048;-83
2021/09/25 08:30:47;;;;;;;14.80;9.82;;;17.70;90.30;;;;;;5051147;28;20028;-84
2021/09/25 08:33:12;;;;;;;17.80;10.77;;;17.80;90.20;;;;;;5036553;28;20378;-84
2021/09/25 08:35:38;;;;;;;15.07;9.98;;;17.90;90.10;;;;;;5035823;28;20037;-86
2021/09/25 08:38:05;;;;;;;15.43;10.45;;;18.00;89.80;;;;;;5035661;28;20029;-82
2021/09/25 08:40:31;;;;;;;20.08;10.77;;;18.00;89.30;;;;;;5034906;28;20040;-85
2021/09/25 08:42:57;;;;;;;14.98;10.02;;;18.10;89.10;;;;;;5034063;28;20029;-83
2021/09/25 08:45:24;;;;;;;15.68;10.70;;;18.20;89.00;;;;;;5018821;28;20038;-83
2021/09/25 08:47:50;;;;;;;17.75;10.55;;;18.20;89.00;;;;;;5018590;28;20083;-83
2021/09/25 08:50:16;;;;;;;14.95;10.55;;;18.30;88.70;;;;;;5036746;28;20021;-82
2021/09/25 08:52:43;;;;;;;17.30;11.18;;;18.30;88.20;;;;;;5018981;28;20032;-83
2021/09/25 08:55:10;;;;;;;18.60;11.68;;;18.30;87.90;;;;;;5051933;28;20463;-83
2021/09/25 08:57:37;;;;;;;16.80;10.57;;;18.40;87.60;;;;;;5052016;28;20032;-83
2021/09/25 09:00:26;;;;;;;16.67;10.93;;;18.40;87.00;;;;;;5034400;28;20447;-83
2021/09/25 09:02:52;;;;;;;17.15;10.73;;;18.40;87.00;;;;;;5034627;28;20049;-83
2021/09/25 09:05:32;;;;;;;15.02;10.77;;;18.50;87.20;;;;;;5034983;28;20030;-82
2021/09/25 09:08:02;;;;;;;19.40;11.30;;;18.50;87.00;;;;;;5034798;28;20036;-83
2021/09/25 09:10:38;;;;;;;15.85;9.70;;;18.50;87.20;;;;;;5036632;28;20025;-83
2021/09/25 09:13:05;;;;;;;12.88;9.43;;;18.50;87.40;;;;;;5036023;28;20021;-83
2021/09/25 09:15:39;;;;;;;16.60;10.13;;;18.60;87.20;;;;;;5034709;28;20120;-83
2021/09/25 09:18:15;;;;;;;18.92;10.25;;;18.50;87.00;;;;;;5035152;28;20026;-83
2021/09/25 09:21:11;;;;;;;16.13;10.77;;;18.60;86.70;;;;;;5036267;28;20032;-83
2021/09/25 09:23:39;;;;;;;14.05;10.18;;;18.70;86.60;;;;;;5031688;28;20541;-82
2021/09/25 09:26:06;;;;;;;16.00;10.63;;;18.70;86.60;;;;;;5034451;28;20391;-82
2021/09/25 09:28:35;;;;;;;17.30;11.07;;;18.70;86.60;;;;;;5030987;28;20037;-83
2021/09/25 09:31:03;;;;;;;17.92;11.55;;;18.70;86.30;;;;;;5016033;28;20049;-82
2021/09/25 09:33:33;;;;;;;17.63;10.88;;;18.70;86.70;;;;;;5043398;28;20049;-85
2021/09/25 09:36:25;;;;;;;13.38;10.10;;;18.70;86.40;;;;;;5028632;28;20022;-83
2021/09/25 09:38:55;;;;;;;16.65;10.27;;;18.80;86.20;;;;;;5018506;28;20079;-82
2021/09/25 09:41:30;;;;;;;14.65;9.40;;;18.80;86.20;;;;;;5022812;28;20504;-82
2021/09/25 09:44:02;;;;;;;13.77;9.90;;;18.70;86.10;;;;;;5028978;28;20381;-81
2021/09/25 09:46:30;;;;;;;14.82;10.45;;;18.80;86.20;;;;;;5015991;28;20091;-82
2021/09/25 09:48:56;;;;;;;13.70;9.45;;;18.90;86.10;;;;;;5030079;28;20026;-79
2021/09/25 09:52:00;;;;;;;14.15;10.05;;;18.90;86.10;;;;;;5033412;28;20041;-83
2021/09/25 09:54:32;;;;;;;16.90;9.30;;;19.00;86.20;;;;;;4995807;28;20026;-86
2021/09/25 09:57:11;;;;;;;14.60;9.50;;;19.00;85.20;;;;;;5014920;28;20034;-84
2021/09/25 09:59:41;;;;;;;12.82;9.02;;;19.00;85.90;;;;;;5015022;28;20030;-87
2021/09/25 10:02:08;;;;;;;13.27;9.68;;;19.10;85.80;;;;;;5018738;28;20087;-86
2021/09/25 10:04:35;;;;;;;12.82;9.07;;;19.10;84.80;;;;;;5032815;28;20050;-86
2021/09/25 10:07:01;;;;;;;12.00;8.40;;;19.20;84.50;;;;;;5033796;28;20040;-85
2021/09/25 10:09:28;;;;;;;11.82;9.13;;;19.20;84.70;;;;;;5033177;28;20028;-85
2021/09/25 10:12:03;;;;;;;13.70;8.88;;;19.30;84.50;;;;;;5032354;28;20032;-85
2021/09/25 10:14:33;;;;;;;13.70;8.65;;;19.30;84.30;;;;;;5029492;28;20037;-85
2021/09/25 10:17:01;;;;;;;12.55;8.27;;;19.30;84.10;;;;;;5013193;28;20032;-85
2021/09/25 10:19:33;;;;;;;12.50;8.48;;;19.40;84.60;;;;;;5042049;28;20028;-85
2021/09/25 10:22:04;;;;;;;11.77;7.90;;;19.40;84.40;;;;;;5033925;28;20087;-85
2021/09/25 10:25:05;;;;;;;13.38;7.57;;;19.50;84.10;;;;;;5032301;28;20802;-85
2021/09/25 10:27:40;;;;;;;10.18;7.00;;;19.60;84.50;;;;;;5033211;28;20038;-85
2021/09/25 10:30:08;;;;;;;10.10;7.78;;;19.70;83.90;;;;;;5032013;28;20017;-86
2021/09/25 10:32:48;;;;;;;9.07;6.90;;;19.70;83.40;;;;;;5033062;28;20532;-84
2021/09/25 10:35:20;;;;;;;13.00;7.95;;;19.60;83.20;;;;;;5026097;28;20041;-84
2021/09/25 10:37:50;;;;;;;9.43;7.10;;;19.70;83.30;;;;;;5027057;28;20081;-84
2021/09/25 10:40:19;;;;;;;12.35;8.13;;;19.80;82.70;;;;;;5028040;28;20116;-85
2021/09/25 10:43:13;;;;;;;12.25;7.53;;;19.80;81.90;;;;;;5031485;28;20025;-84
2021/09/25 10:45:39;;;;;;;9.27;6.78;;;19.90;82.10;;;;;;5032675;28;20057;-84
2021/09/25 10:48:24;;;;;;;11.93;7.95;;;19.90;82.50;;;;;;5034599;28;20037;-84
2021/09/25 10:50:53;;;;;;;8.15;6.38;;;20.00;82.10;;;;;;5035252;28;20068;-84
2021/09/25 10:53:23;;;;;;;9.82;7.47;;;20.00;82.30;;;;;;5034747;28;20021;-85
2021/09/25 10:55:51;;;;;;;9.75;6.60;;;20.00;82.40;;;;;;5035042;28;20041;-84
2021/09/25 10:58:23;;;;;;;8.30;6.50;;;20.00;82.20;;;;;;5034926;28;20474;-85
2021/09/25 11:00:48;;;;;;;12.10;7.38;;;20.00;82.20;;;;;;5034749;28;20035;-85
2021/09/25 11:06:12;;;;;;;10.43;7.03;;;20.00;82.00;;;;;;5054804;28;20029;-84
2021/09/25 11:08:47;;;;;;;15.98;7.07;;;20.00;81.70;;;;;;5054385;28;20083;-84
2021/09/25 11:11:15;;;;;;;9.20;7.53;;;19.90;82.00;;;;;;5054247;28;20032;-85
2021/09/25 11:14:08;;;;;;;14.40;8.83;;;20.00;82.30;;;;;;5032815;28;20025;-84
2021/09/25 11:16:51;;;;;;;11.48;7.43;;;20.00;81.80;;;;;;5033795;28;20031;-85
2021/09/25 11:19:26;;;;;;;15.93;6.57;;;20.00;81.70;;;;;;5034031;28;20035;-84
2021/09/25 11:22:11;;;;;;;9.30;7.35;;;20.00;82.30;;;;;;5033726;28;20029;-85
2021/09/25 11:24:41;;;;;;;15.55;7.50;;;20.00;81.80;;;;;;5033186;28;20021;-85
2021/09/25 11:27:15;;;;;;;9.27;6.57;;;20.10;82.20;;;;;;5039767;28;20056;-85
2021/09/25 11:29:56;;;;;;;12.00;6.60;;;20.10;82.50;;;;;;5033136;28;20053;-84
2021/09/25 11:32:27;;;;;;;12.63;6.72;;;20.20;82.20;;;;;;5047472;28;20056;-84
2021/09/25 11:34:54;;;;;;;10.98;6.80;;;20.20;81.70;;;;;;5052665;28;20094;-85
2021/09/25 11:37:20;;;;;;;10.32;7.03;;;20.20;83.00;;;;;;5052584;28;20028;-84
2021/09/25 11:39:48;;;;;;;9.57;5.95;;;20.20;81.70;;;;;;5053000;28;20028;-85
2021/09/25 11:42:16;;;;;;;9.88;6.70;;;20.30;81.90;;;;;;5052938;28;20394;-84
2021/09/25 11:45:00;;;;;;;9.10;6.03;;;20.30;82.20;;;;;;5052808;28;20025;-84
2021/09/25 11:47:36;;;;;;;10.70;6.57;;;20.30;82.50;;;;;;5051559;28;20075;-84
2021/09/25 11:50:15;;;;;;;9.38;6.80;;;20.50;82.30;;;;;;5052571;28;20017;-85
2021/09/25 11:52:43;;;;;;;14.23;7.82;;;20.50;82.10;;;;;;5047529;28;20025;-85
2021/09/25 11:55:10;;;;;;;12.33;7.13;;;20.60;81.90;;;;;;5033758;28;20970;-85
2021/09/25 11:57:36;;;;;;;11.63;6.80;;;20.70;81.00;;;;;;5034195;28;20025;-85
2021/09/25 12:00:37;;;;;;;14.98;7.60;;;20.70;80.30;;;;;;5051355;28;20028;-84
2021/09/25 12:03:08;;;;;;;10.18;7.13;;;20.70;79.40;;;;;;5051047;28;20033;-84
2021/09/25 12:05:56;;;;;;;11.20;6.63;;;20.80;80.00;;;;;;5031095;28;20367;-84
2021/09/25 12:08:26;;;;;;;10.48;6.13;;;20.90;80.60;;;;;;5031091;28;20029;-84
2021/09/25 12:11:00;;;;;;;12.57;6.40;;;20.90;79.70;;;;;;5042807;28;20028;-84
2021/09/25 12:13:27;;;;;;;10.98;6.80;;;21.00;78.80;;;;;;5052269;28;20021;-84
2021/09/25 12:15:56;;;;;;;11.52;7.07;;;21.00;79.00;;;;;;5052756;28;20124;-84
2021/09/25 12:18:22;;;;;;;10.60;6.78;;;20.90;77.40;;;;;;5051313;28;20033;-84
2021/09/25 12:21:05;;;;;;;10.23;6.47;;;20.90;79.00;;;;;;5052568;28;20024;-84
2021/09/25 12:23:33;;;;;;;13.45;6.10;;;21.00;79.00;;;;;;5052481;28;20079;-84
2021/09/25 12:25:59;;;;;;;10.63;6.05;;;21.10;78.90;;;;;;5052208;28;20021;-84
2021/09/25 12:28:30;;;;;;;10.70;6.25;;;21.20;78.20;;;;;;5051956;28;20021;-84
2021/09/25 12:30:57;;;;;;;12.88;6.50;;;21.20;77.20;;;;;;5052644;28;20025;-84
2021/09/25 12:33:23;;;;;;;10.43;5.70;;;21.30;76.80;;;;;;5052570;28;20025;-84
2021/09/25 12:36:05;;;;;;;12.32;7.07;;;21.30;77.30;;;;;;5038021;28;20041;-84
2021/09/25 12:38:40;;;;;;;9.25;5.85;;;21.60;75.30;;;;;;5055874;28;20029;-84
2021/09/25 12:41:08;;;;;;;10.93;6.00;;;21.70;74.20;;;;;;5038419;28;20469;-84